createdAt,value
2023-02-16T00:01:24.830Z,-0.97
2023-02-16T00:11:24.872Z,-0.82
2023-02-16T00:21:25.193Z,-0.85
2023-02-16T00:31:25.310Z,-0.78
2023-02-16T00:41:25.574Z,-0.85
2023-02-16T00:51:26.561Z,-1.20
2023-02-16T01:01:25.960Z,-1.27
2023-02-16T01:11:26.012Z,-1.17
2023-02-16T01:21:26.322Z,-1.19
2023-02-16T01:31:26.461Z,-1.37
2023-02-16T01:41:26.576Z,-1.27
2023-02-16T01:51:26.611Z,-1.49
2023-02-16T02:01:26.936Z,-1.49
2023-02-16T02:11:27.000Z,-1.59
2023-02-16T02:21:27.322Z,-1.59
2023-02-16T02:31:27.451Z,-1.64
2023-02-16T02:41:27.608Z,-1.80
2023-02-16T02:51:27.628Z,-1.77
2023-02-16T03:01:27.994Z,-1.70
2023-02-16T03:11:28.093Z,-1.66
2023-02-16T03:21:28.458Z,-1.58
2023-02-16T03:31:28.619Z,-1.62
2023-02-16T03:41:28.794Z,-1.72
2023-02-16T03:51:28.834Z,-1.84
2023-02-16T04:01:29.172Z,-1.92
2023-02-16T04:11:29.213Z,-1.97
2023-02-16T04:21:29.534Z,-2.03
2023-02-16T04:31:29.693Z,-2.06
2023-02-16T04:41:29.898Z,-2.21
2023-02-16T04:51:29.923Z,-2.24
2023-02-16T05:01:30.225Z,-2.27
2023-02-16T05:11:30.311Z,-2.60
2023-02-16T05:21:30.643Z,-2.39
2023-02-16T05:31:32.557Z,-2.30
2023-02-16T05:41:30.921Z,-2.37
2023-02-16T05:51:30.971Z,-2.42
2023-02-16T06:01:31.288Z,-2.52
2023-02-16T06:11:31.324Z,-2.26
2023-02-16T06:21:31.666Z,-2.30
2023-02-16T06:31:33.870Z,-2.40
2023-02-16T06:41:32.117Z,-2.21
2023-02-16T06:51:32.108Z,-2.12
2023-02-16T07:01:32.150Z,-2.18
2023-02-16T07:11:32.483Z,-2.06
2023-02-16T07:21:34.660Z,-1.95
2023-02-16T07:31:33.869Z,-1.46
2023-02-16T07:41:32.925Z,-1.02
2023-02-16T07:51:33.238Z,-0.78
2023-02-16T08:01:33.299Z,0.07
2023-02-16T08:11:34.618Z,0.57
2023-02-16T08:21:33.668Z,0.58
2023-02-16T08:31:34.080Z,1.09
2023-02-16T08:41:34.006Z,1.87
2023-02-16T08:51:34.459Z,2.14
2023-02-16T09:01:34.555Z,3.10
2023-02-16T09:11:37.878Z,4.09
2023-02-16T09:21:34.789Z,4.92
2023-02-16T09:31:34.979Z,5.30
2023-02-16T09:41:35.043Z,6.34
2023-02-16T09:51:35.342Z,6.25
2023-02-16T10:01:35.425Z,7.23
2023-02-16T10:11:35.512Z,7.61
2023-02-16T10:21:35.722Z,8.36
2023-02-16T10:31:36.087Z,8.83
2023-02-16T10:41:36.181Z,9.87
2023-02-16T10:51:36.566Z,10.22
2023-02-16T11:01:36.639Z,10.08
2023-02-16T11:11:36.846Z,10.26
2023-02-16T11:21:36.920Z,11.75
2023-02-16T11:31:37.170Z,12.28
2023-02-16T11:41:37.357Z,11.78
2023-02-16T11:51:37.467Z,13.14
2023-02-16T12:01:37.599Z,13.52
2023-02-16T12:11:37.754Z,13.63
2023-02-16T12:21:37.824Z,13.67
2023-02-16T12:31:38.122Z,13.78
2023-02-16T12:41:38.134Z,13.60
2023-02-16T12:51:38.453Z,13.69
2023-02-16T13:01:38.591Z,13.67
2023-02-16T13:11:38.810Z,14.12
2023-02-16T13:21:50.538Z,14.25
2023-02-16T13:31:40.271Z,14.32
2023-02-16T13:41:39.413Z,14.61
2023-02-16T13:51:39.447Z,13.05
2023-02-16T14:01:39.775Z,14.06
2023-02-16T14:11:39.816Z,14.84
2023-02-16T14:21:40.146Z,14.65
2023-02-16T14:31:40.344Z,13.62
2023-02-16T14:41:40.547Z,12.35
2023-02-16T14:51:40.607Z,12.09
2023-02-16T15:01:40.883Z,11.98
2023-02-16T15:11:40.973Z,12.28
2023-02-16T15:21:41.253Z,11.51
2023-02-16T15:31:41.337Z,11.36
2023-02-16T15:41:41.804Z,11.19
2023-02-16T15:51:41.495Z,11.21
2023-02-16T16:01:41.777Z,11.11
2023-02-16T16:11:41.895Z,10.44
2023-02-16T16:21:42.261Z,10.29
2023-02-16T16:31:42.341Z,9.93
2023-02-16T16:41:42.310Z,9.46
2023-02-16T16:51:42.544Z,9.42
2023-02-16T17:01:42.923Z,8.99
2023-02-16T17:11:43.156Z,8.79
2023-02-16T17:21:43.468Z,8.45
2023-02-16T17:31:43.801Z,8.40
2023-02-16T17:41:43.878Z,8.56
2023-02-16T17:51:43.808Z,8.48
2023-02-16T18:01:44.035Z,8.23
2023-02-16T18:11:43.956Z,7.46
2023-02-16T18:21:44.260Z,7.48
2023-02-16T18:31:44.604Z,7.46
2023-02-16T18:41:44.929Z,7.43
2023-02-16T18:51:45.015Z,7.75
2023-02-16T19:01:45.036Z,8.02
2023-02-16T19:11:45.103Z,7.40
2023-02-16T19:21:46.558Z,7.86
2023-02-16T19:31:46.653Z,8.04
2023-02-16T19:41:49.439Z,7.67
2023-02-16T19:51:46.076Z,7.68
2023-02-16T20:01:47.302Z,8.15
2023-02-16T20:11:46.675Z,8.63
2023-02-16T20:21:46.727Z,7.53
2023-02-16T20:31:47.046Z,8.87
2023-02-16T20:41:46.828Z,8.58
2023-02-16T20:51:47.351Z,8.61
2023-02-16T21:01:47.401Z,7.90
2023-02-16T21:11:47.752Z,8.00
2023-02-16T21:21:47.982Z,7.97
2023-02-16T21:31:48.229Z,7.77
2023-02-16T21:41:49.205Z,7.69
2023-02-16T21:51:48.572Z,8.11
2023-02-16T22:01:48.752Z,8.12
2023-02-16T22:11:48.822Z,8.71
2023-02-16T22:21:48.927Z,8.23
2023-02-16T22:31:49.078Z,8.79
2023-02-16T22:41:49.209Z,8.70
2023-02-16T22:51:49.278Z,8.47
2023-02-16T23:01:49.363Z,8.45
2023-02-16T23:11:49.418Z,8.50
2023-02-16T23:21:49.752Z,8.19
2023-02-16T23:31:49.830Z,8.59
2023-02-16T23:41:50.112Z,8.80
2023-02-16T23:51:50.137Z,8.71
